My Meet Scores
Emma Rudolph, Gym Kinetics Gymnastics - MyMeetScores.com
Top100 | Top Teams | Upcoming Meets | Completed Meets | Latest | Add Scores | Help| Support | Bookmark and Share

Emma Rudolph, Gym Kinetics Gymnastics
Personal Bests
LevelVault BarsBeamFloorAA
39.5509.550 9.6509.65038.075
49.3509.325 9.6509.35036.950
59.6509.300 9.6009.42537.625
79.3258.950 9.6009.60037.250
Meet Scores
Date Meet Team Session Level Division Vault Bars Beam Floor AA
2021-01-21 King Arthur Invitational Gym Kinetics Gymnastics 1 7 JR 9.300 1 8.650 6 9.600 1 9.600 1 37.150 2
2021-01-14 2021 Bravo Classic Gym Kinetics Gymnastics 16 7 Sr 9.325 4 8.950 10 9.550 1T 9.425 7 37.250 5
2020-12-18 Aspire Classic Gym Kinetics Gymnastics 3 7 Younger 9.200 8T 8.700 8 9.100 8 9.300 7 36.300 7
2020-02-21 Kinetic Classic Gym Kinetics Gymnastics 03 5 Middle 9.550 2 8.700 39T 9.500 7T 9.425 8 37.175 10
2020-01-31 Chow's Challenge Gym Kinetics Gymnastics B2 5 JR B 9.650 3 9.300 6 9.400 4T 9.275 5 37.625 4
2020-01-17 2020 Bravo Classic Gym Kinetics Gymnastics 4A 5 Jr 9.600 2T 8.900 12 9.200 5 9.400 2T 37.100 3T
2020-01-10 Leenda's Island Adventure Gym Kinetics Gymnastics PG1 5 11 Year Ol 9.025 1T 8.800 9 9.250 1 9.350 3 36.425 1
2019-12-20 Aspire Classic - 2019 Gym Kinetics Gymnastics 3A 5 Middle 9.400 2 9.200 5T 9.600 1T 9.400 1T 37.600 1
2019-12-07 Home for the Holidays 2019 Gym Kinetics Gymnastics 5 5 Middle 9.425 1 9.150 7T 9.300 3 9.125 10 37.000 4
2019-03-22 Illinois Gymnastics State Championships Gym Kinetics Gymnastics 4 4 JR B 9.100 5 9.325 9 9.425 7 9.100 12T 36.950 5
2019-03-01 NGCD Academy's 2019 Flip'r Invitational Gym Kinetics Gymnastics 10 4 Jr A 8.900 10T 9.000 9T 8.750 13 9.300 4 35.950 11
2019-02-23 Kinetic Classic 2019 Gym Kinetics Gymnastics 1 4 Middle 8.575 14 8.800 24T 8.725 26 8.800 17T 34.900 22
2019-02-08 Midwest Twisters Harley Meet Womens Gym Kinetics Gymnastics T10 4 10a 8.600 12 8.700 9T 9.650 1 9.350 5 36.300 6
2019-01-18 2019 Bravo Classic Gym Kinetics Gymnastics 3B 4 Jr 8.925 12 8.900 11 9.175 6T 9.000 7T 36.000 7
2019-01-11 St Jude Benefit Meet Gym Kinetics Gymnastics 6A 4 Jr C 9.350 1 8.225 12 9.475 2 9.225 2 36.275 3
2018-12-14 2018 Aspire Classic Gym Kinetics Gymnastics 6A 4 Middle 9.150 4T 8.800 13 9.150 10T 9.275 5 36.375 8T
2018-05-03 Illinois USA Gymnastics Level 3 State Championships Gym Kinetics Gymnastics 1 3 Jr D 9.475 8T 9.525 1 9.425 2 9.650 1 38.075 1
2018-02-23 Kinetic Classic Gym Kinetics Gymnastics 4 3 Older 9.550 2T 9.550 6T 8.750 70T 9.450 21T 37.300 15T
2018-02-09 Arizona Sunrays Classic Rock Invitational Gym Kinetics Gymnastics R02 3 JrC 9.400 2 9.325 5 9.525 1 9.550 3T 37.800 2
2018-02-03 Midwest Games Gym Kinetics Gymnastics 5 3 SR A 9.300 3T 9.225 8 9.275 3 9.250 8T 37.050 6
2018-01-19 2018 Bravo Classic Gym Kinetics Gymnastics 6B 3 Sr 9.300 8T 9.350 10T 9.650 1 9.450 1 37.750 1T
2017-12-15 2017 Aspire Classic Gym Kinetics Gymnastics 9A 3 Middle 9.450 2 9.300 3 8.725 7 9.600 2 37.075 1
Get your scores on
a t-shirt, pin, or hoodie

www.lazysuits.com